Time;durP1;ratioP1;P1;durP2;ratioP2;P2;SDS_P1;SDS_P2;PMS_P1;PMS_P2;Temp;Humidity;BMP_temperature;BMP_pressure;BME280_temperature;BME280_humidity;BME280_pressure;Samples;Min_cycle;Max_cycle;Signal;HPM_P1;HPM_P2
2022/05/08 00:01:56;;;;;;;14.60;13.20;;;;;;;;;;5080413;28;24866;-46
2022/05/08 00:04:22;;;;;;;14.45;13.15;;;;;;;;;;5080162;28;24784;-46
2022/05/08 00:06:47;;;;;;;13.70;12.50;;;;;;;;;;5080646;28;24426;-45
2022/05/08 00:09:12;;;;;;;14.48;13.18;;;;;;;;;;5081822;28;24494;-46
2022/05/08 00:11:37;;;;;;;14.55;13.20;;;;;;;;;;5078429;28;24476;-46
2022/05/08 00:14:02;;;;;;;14.47;13.20;;;;;;;;;;5085257;28;24479;-46
2022/05/08 00:16:27;;;;;;;14.70;13.40;;;;;;;;;;5082670;28;24467;-46
2022/05/08 00:18:53;;;;;;;13.33;12.10;;;;;;;;;;5083883;28;24441;-46
2022/05/08 00:21:18;;;;;;;14.10;12.80;;;;;;;;;;5082049;28;24492;-46
2022/05/08 00:23:43;;;;;;;13.90;12.80;;;;;;;;;;5085646;28;24509;-46
2022/05/08 00:26:09;;;;;;;13.60;12.50;;;;;;;;;;5084980;28;24772;-46
2022/05/08 00:28:35;;;;;;;14.47;13.17;;;;;;;;;;5082512;28;24522;-46
2022/05/08 00:31:00;;;;;;;14.20;13.00;;;;;;;;;;5082398;28;24454;-46
2022/05/08 00:33:25;;;;;;;13.32;12.13;;;;;;;;;;5086077;28;25253;-45
2022/05/08 00:35:50;;;;;;;13.80;12.70;;;;;;;;;;5080832;28;24511;-45
2022/05/08 00:38:15;;;;;;;13.00;11.90;;;;;;;;;;5085992;28;24422;-45
2022/05/08 00:40:41;;;;;;;13.80;12.60;;;;;;;;;;5085314;28;24505;-45
2022/05/08 00:43:25;;;;;;;13.23;11.93;;;;;;;;;;5086874;28;24434;-45
2022/05/08 00:45:50;;;;;;;13.30;12.30;;;;;;;;;;5083592;28;24781;-45
2022/05/08 00:48:16;;;;;;;13.07;11.98;;;;;;;;;;5081996;28;24777;-45
2022/05/08 00:50:41;;;;;;;12.75;11.55;;;;;;;;;;5084699;28;24777;-46
2022/05/08 00:53:06;;;;;;;12.40;11.32;;;;;;;;;;5079979;28;24418;-46
2022/05/08 00:55:31;;;;;;;12.50;11.20;;;;;;;;;;5083529;28;24527;-46
2022/05/08 00:57:57;;;;;;;12.50;11.50;;;;;;;;;;5083049;28;24421;-45
2022/05/08 01:00:22;;;;;;;13.60;12.35;;;;;;;;;;5085143;28;24549;-46
2022/05/08 01:02:48;;;;;;;13.60;12.40;;;;;;;;;;5083566;28;24625;-45
2022/05/08 01:05:13;;;;;;;12.53;11.53;;;;;;;;;;5077924;28;24431;-46
2022/05/08 01:07:38;;;;;;;13.87;12.77;;;;;;;;;;5084686;28;24558;-45
2022/05/08 01:10:03;;;;;;;12.80;11.70;;;;;;;;;;5081041;28;24513;-46
2022/05/08 01:12:30;;;;;;;12.97;11.77;;;;;;;;;;5082642;28;24470;-45
2022/05/08 01:15:10;;;;;;;12.60;11.50;;;;;;;;;;5081177;28;24538;-46
2022/05/08 01:17:35;;;;;;;12.00;10.70;;;;;;;;;;5084096;28;24964;-46
2022/05/08 01:20:00;;;;;;;12.13;11.07;;;;;;;;;;5083587;28;24483;-46
2022/05/08 01:22:25;;;;;;;12.02;10.93;;;;;;;;;;5084371;28;24517;-47
2022/05/08 01:24:51;;;;;;;11.93;10.87;;;;;;;;;;5081075;28;24457;-46
2022/05/08 01:27:16;;;;;;;11.50;10.50;;;;;;;;;;5078392;28;24943;-46
2022/05/08 01:29:41;;;;;;;11.45;10.30;;;;;;;;;;5084182;28;24481;-45
2022/05/08 01:32:06;;;;;;;11.50;10.60;;;;;;;;;;5081494;28;24472;-46
2022/05/08 01:34:32;;;;;;;11.50;10.50;;;;;;;;;;5085556;28;24991;-46
2022/05/08 01:36:57;;;;;;;11.40;10.40;;;;;;;;;;5082635;28;24789;-46
2022/05/08 01:39:22;;;;;;;11.23;10.33;;;;;;;;;;5085715;28;24867;-46
2022/05/08 01:41:47;;;;;;;11.30;10.30;;;;;;;;;;5083318;28;24487;-46
2022/05/08 01:44:12;;;;;;;11.10;10.20;;;;;;;;;;5084720;28;24414;-46
2022/05/08 01:46:37;;;;;;;11.13;10.23;;;;;;;;;;5083060;28;24465;-46
2022/05/08 01:49:02;;;;;;;11.05;10.15;;;;;;;;;;5082812;28;24434;-46
2022/05/08 01:51:28;;;;;;;11.80;10.70;;;;;;;;;;5085053;28;24425;-45
2022/05/08 01:53:53;;;;;;;11.70;10.70;;;;;;;;;;5083477;28;24468;-46
2022/05/08 01:56:19;;;;;;;11.05;10.15;;;;;;;;;;5083328;28;24426;-45
2022/05/08 01:58:47;;;;;;;11.10;10.20;;;;;;;;;;5077026;28;24526;-45
2022/05/08 02:01:14;;;;;;;11.15;10.15;;;;;;;;;;5081889;28;24422;-46
2022/05/08 02:03:39;;;;;;;10.70;9.90;;;;;;;;;;5085325;28;24601;-46
2022/05/08 02:06:05;;;;;;;11.53;10.43;;;;;;;;;;5084628;28;24514;-46
2022/05/08 02:08:30;;;;;;;10.70;9.80;;;;;;;;;;5080412;28;24502;-46
2022/05/08 02:10:55;;;;;;;11.53;10.63;;;;;;;;;;5082381;28;24705;-47
2022/05/08 02:13:20;;;;;;;11.47;10.47;;;;;;;;;;5083631;28;24792;-46
2022/05/08 02:15:45;;;;;;;10.70;9.90;;;;;;;;;;5084402;28;24422;-47
2022/05/08 02:18:10;;;;;;;11.60;10.70;;;;;;;;;;5081562;28;24438;-46
2022/05/08 02:20:38;;;;;;;12.03;11.03;;;;;;;;;;5081186;28;24426;-46
2022/05/08 02:23:04;;;;;;;11.18;10.27;;;;;;;;;;5081861;28;24419;-46
2022/05/08 02:25:30;;;;;;;11.50;10.50;;;;;;;;;;5083282;28;24429;-46
2022/05/08 02:27:55;;;;;;;12.45;11.35;;;;;;;;;;5078795;28;24517;-46
2022/05/08 02:30:22;;;;;;;12.07;11.07;;;;;;;;;;5077228;28;24875;-46
2022/05/08 02:32:47;;;;;;;12.00;11.00;;;;;;;;;;5084277;28;25035;-46
2022/05/08 02:35:13;;;;;;;12.23;11.02;;;;;;;;;;5084065;28;24501;-46
2022/05/08 02:37:38;;;;;;;12.20;11.00;;;;;;;;;;5080895;28;24414;-46
2022/05/08 02:40:06;;;;;;;11.37;10.47;;;;;;;;;;5082441;28;24468;-46
2022/05/08 02:42:31;;;;;;;12.33;11.40;;;;;;;;;;5077589;28;24574;-46
2022/05/08 02:44:56;;;;;;;11.07;10.07;;;;;;;;;;5081960;28;24979;-47
2022/05/08 02:47:21;;;;;;;11.25;10.35;;;;;;;;;;5078722;28;24428;-46
2022/05/08 02:49:46;;;;;;;11.75;10.85;;;;;;;;;;5079437;28;24998;-46
2022/05/08 02:52:11;;;;;;;11.90;10.90;;;;;;;;;;5077195;28;24479;-46
2022/05/08 02:54:37;;;;;;;12.40;11.40;;;;;;;;;;5082492;28;24494;-46
2022/05/08 02:59:46;;;;;;;12.53;11.33;;;;;;;;;;5086797;28;24442;-47
2022/05/08 03:02:11;;;;;;;11.30;10.30;;;;;;;;;;5077261;28;24414;-46
2022/05/08 03:04:36;;;;;;;11.23;10.30;;;;;;;;;;5082279;28;24452;-46
2022/05/08 03:07:04;;;;;;;11.07;10.18;;;;;;;;;;5072081;28;24433;-46
2022/05/08 03:09:29;;;;;;;10.65;9.85;;;;;;;;;;5083048;28;25244;-46
2022/05/08 03:11:54;;;;;;;11.55;10.55;;;;;;;;;;5076597;28;24462;-46
2022/05/08 03:14:24;;;;;;;12.13;11.03;;;;;;;;;;5082126;28;25064;-46
2022/05/08 03:16:49;;;;;;;11.43;10.43;;;;;;;;;;5080759;28;24832;-46
2022/05/08 03:19:14;;;;;;;11.10;10.20;;;;;;;;;;5082422;28;24475;-46
2022/05/08 03:21:41;;;;;;;10.80;9.90;;;;;;;;;;5080346;28;24429;-46
2022/05/08 03:24:06;;;;;;;10.82;9.93;;;;;;;;;;5082275;28;25201;-46
2022/05/08 03:26:32;;;;;;;11.60;10.60;;;;;;;;;;5077673;28;25050;-46
2022/05/08 03:28:57;;;;;;;10.75;9.75;;;;;;;;;;5079253;28;24433;-46
2022/05/08 03:31:22;;;;;;;11.38;10.48;;;;;;;;;;5081175;28;24466;-46
2022/05/08 03:33:47;;;;;;;10.88;9.98;;;;;;;;;;5083071;28;24773;-46
2022/05/08 03:36:12;;;;;;;11.50;10.50;;;;;;;;;;5075097;28;24465;-46
2022/05/08 03:38:44;;;;;;;11.10;10.30;;;;;;;;;;5077893;28;24445;-46
2022/05/08 03:41:09;;;;;;;10.50;9.60;;;;;;;;;;5080211;28;24509;-46
2022/05/08 03:43:36;;;;;;;10.98;9.98;;;;;;;;;;5072525;28;25272;-46
2022/05/08 03:46:01;;;;;;;11.25;10.25;;;;;;;;;;5081448;28;24414;-46
2022/05/08 03:48:27;;;;;;;10.60;9.80;;;;;;;;;;5081435;28;24509;-46
2022/05/08 03:50:52;;;;;;;10.93;10.02;;;;;;;;;;5075146;28;24991;-47
2022/05/08 03:53:17;;;;;;;10.75;9.95;;;;;;;;;;5085529;28;24421;-46
2022/05/08 03:55:42;;;;;;;10.60;9.80;;;;;;;;;;5082981;28;24507;-46
2022/05/08 03:58:07;;;;;;;10.82;9.93;;;;;;;;;;5080570;28;25005;-46
2022/05/08 04:00:33;;;;;;;10.75;9.90;;;;;;;;;;5075239;28;24428;-46
2022/05/08 04:03:00;;;;;;;10.60;9.77;;;;;;;;;;5084067;28;24429;-46
2022/05/08 04:05:26;;;;;;;10.90;10.05;;;;;;;;;;5084538;28;24414;-46
2022/05/08 04:07:51;;;;;;;11.48;10.48;;;;;;;;;;5082247;28;25322;-48
2022/05/08 04:10:16;;;;;;;11.10;10.00;;;;;;;;;;5086582;28;24521;-46
2022/05/08 04:12:42;;;;;;;10.82;9.82;;;;;;;;;;5086351;28;24938;-46
2022/05/08 04:16:15;;;;;;;10.38;9.57;;;;;;;;;;5086091;28;24425;-46
2022/05/08 04:17:53;;;;;;;10.70;9.90;;;;;;;;;;5075865;28;24547;-45
2022/05/08 04:20:18;;;;;;;10.30;9.50;;;;;;;;;;5084765;28;24872;-46
2022/05/08 04:25:27;;;;;;;9.27;8.57;;;;;;;;;;5089423;28;24977;-46
2022/05/08 04:27:52;;;;;;;10.88;10.05;;;;;;;;;;5086782;28;24603;-46
2022/05/08 04:30:18;;;;;;;10.27;9.48;;;;;;;;;;5088450;28;24449;-46
2022/05/08 04:32:43;;;;;;;10.50;9.60;;;;;;;;;;5084496;28;24441;-46
2022/05/08 04:35:08;;;;;;;10.60;9.70;;;;;;;;;;5088325;28;24562;-46
2022/05/08 04:37:33;;;;;;;11.10;10.20;;;;;;;;;;5087706;28;24566;-46
2022/05/08 04:39:58;;;;;;;10.55;9.65;;;;;;;;;;5085806;28;24410;-46
2022/05/08 04:42:23;;;;;;;10.27;9.38;;;;;;;;;;5084874;28;24422;-46
2022/05/08 04:44:49;;;;;;;10.60;9.70;;;;;;;;;;5088327;28;24459;-48
2022/05/08 04:47:14;;;;;;;10.88;9.98;;;;;;;;;;5088168;28;24422;-46
2022/05/08 04:49:39;;;;;;;10.30;9.50;;;;;;;;;;5084892;28;24539;-46
2022/05/08 04:52:04;;;;;;;10.65;9.75;;;;;;;;;;5086108;28;25066;-46
2022/05/08 04:54:29;;;;;;;11.20;10.20;;;;;;;;;;5086946;28;25005;-51
2022/05/08 04:56:54;;;;;;;10.13;9.23;;;;;;;;;;5088197;28;24410;-46
2022/05/08 04:59:20;;;;;;;9.80;9.00;;;;;;;;;;5087863;28;24408;-46
2022/05/08 05:01:45;;;;;;;9.48;8.77;;;;;;;;;;5086302;28;24426;-46
2022/05/08 05:04:10;;;;;;;9.23;8.52;;;;;;;;;;5085229;28;24443;-46
2022/05/08 05:06:35;;;;;;;9.00;8.30;;;;;;;;;;5088644;28;24466;-46
2022/05/08 05:09:00;;;;;;;9.73;8.93;;;;;;;;;;5088063;28;24433;-46
2022/05/08 05:11:25;;;;;;;9.80;8.87;;;;;;;;;;5088134;28;24459;-46
2022/05/08 05:13:51;;;;;;;8.10;7.50;;;;;;;;;;5087017;28;24414;-46
2022/05/08 05:16:16;;;;;;;8.38;7.68;;;;;;;;;;5088090;28;24950;-46
2022/05/08 05:18:41;;;;;;;7.80;7.20;;;;;;;;;;5086156;28;25352;-46
2022/05/08 05:21:06;;;;;;;7.70;7.10;;;;;;;;;;5086651;28;24469;-47
2022/05/08 05:23:33;;;;;;;7.60;7.10;;;;;;;;;;5084491;28;24437;-47
2022/05/08 05:25:58;;;;;;;7.30;6.70;;;;;;;;;;5077539;28;24434;-47
2022/05/08 05:28:23;;;;;;;6.70;6.20;;;;;;;;;;5081867;28;24426;-47
2022/05/08 05:30:48;;;;;;;7.30;6.70;;;;;;;;;;5079190;28;24442;-47
2022/05/08 05:33:15;;;;;;;6.72;6.22;;;;;;;;;;5085381;28;24430;-44
2022/05/08 05:35:41;;;;;;;6.68;6.22;;;;;;;;;;5082483;28;24466;-45
2022/05/08 05:38:06;;;;;;;6.50;6.00;;;;;;;;;;5083360;28;24525;-45
2022/05/08 05:40:31;;;;;;;5.47;5.15;;;;;;;;;;5084171;28;24424;-45
2022/05/08 05:42:57;;;;;;;6.13;5.63;;;;;;;;;;5083234;28;24429;-45
2022/05/08 05:45:23;;;;;;;6.93;6.40;;;;;;;;;;5082716;28;24421;-45
2022/05/08 05:47:52;;;;;;;6.67;6.17;;;;;;;;;;5082300;28;24908;-45
2022/05/08 05:50:18;;;;;;;8.70;8.00;;;;;;;;;;5072562;28;24859;-45
2022/05/08 05:52:44;;;;;;;6.85;6.32;;;;;;;;;;5080824;28;24968;-45
2022/05/08 05:55:09;;;;;;;6.50;6.00;;;;;;;;;;5085287;28;24467;-44
2022/05/08 05:57:34;;;;;;;6.60;6.10;;;;;;;;;;5084495;28;24422;-45
2022/05/08 06:00:00;;;;;;;6.43;5.93;;;;;;;;;;5086132;28;24754;-45
2022/05/08 06:02:25;;;;;;;7.95;7.40;;;;;;;;;;5082079;28;24399;-45
2022/05/08 06:04:50;;;;;;;7.70;7.20;;;;;;;;;;5078265;28;24409;-46
2022/05/08 06:07:15;;;;;;;6.93;6.43;;;;;;;;;;5081184;28;25033;-45
2022/05/08 06:09:40;;;;;;;7.00;6.40;;;;;;;;;;5078342;28;24469;-45
2022/05/08 06:12:06;;;;;;;7.82;7.22;;;;;;;;;;5086619;28;24410;-46
2022/05/08 06:14:31;;;;;;;7.30;6.70;;;;;;;;;;5084325;28;24951;-45
2022/05/08 06:16:56;;;;;;;7.40;6.90;;;;;;;;;;5080655;28;25019;-45
2022/05/08 06:19:21;;;;;;;8.77;8.10;;;;;;;;;;5080103;28;24434;-45
2022/05/08 06:21:47;;;;;;;7.83;7.23;;;;;;;;;;5083062;28;24422;-45
2022/05/08 06:24:12;;;;;;;8.40;7.70;;;;;;;;;;5078374;28;24765;-45
2022/05/08 06:26:37;;;;;;;7.17;6.67;;;;;;;;;;5080976;28;24518;-45
2022/05/08 06:29:02;;;;;;;7.47;6.97;;;;;;;;;;5084344;28;24521;-45
2022/05/08 06:31:28;;;;;;;7.80;7.20;;;;;;;;;;5083098;28;24495;-45
2022/05/08 06:33:54;;;;;;;8.50;7.90;;;;;;;;;;5079601;28;24420;-45
2022/05/08 06:36:19;;;;;;;8.00;7.40;;;;;;;;;;5084528;28;24479;-45
2022/05/08 06:38:44;;;;;;;8.60;7.90;;;;;;;;;;5080972;28;24526;-45
2022/05/08 06:41:09;;;;;;;7.50;6.90;;;;;;;;;;5080150;28;24560;-45
2022/05/08 06:43:36;;;;;;;7.70;7.10;;;;;;;;;;5076862;28;25010;-45
2022/05/08 06:46:01;;;;;;;8.13;7.50;;;;;;;;;;5084883;28;24452;-45
2022/05/08 06:48:27;;;;;;;8.05;7.45;;;;;;;;;;5075413;28;24682;-45
2022/05/08 06:50:52;;;;;;;7.80;7.20;;;;;;;;;;5083163;28;24529;-46
2022/05/08 06:53:17;;;;;;;8.70;8.00;;;;;;;;;;5083875;28;24422;-45
2022/05/08 06:55:45;;;;;;;9.60;8.90;;;;;;;;;;5082867;28;24964;-45
2022/05/08 06:58:10;;;;;;;8.48;7.88;;;;;;;;;;5081468;28;24413;-45
2022/05/08 07:03:19;;;;;;;9.27;8.57;;;;;;;;;;5081196;28;24451;-46
2022/05/08 07:05:47;;;;;;;8.57;7.87;;;;;;;;;;5080448;28;24426;-45
2022/05/08 07:08:12;;;;;;;9.50;8.80;;;;;;;;;;5085597;28;24479;-45
2022/05/08 07:10:38;;;;;;;9.77;8.97;;;;;;;;;;5084814;28;25298;-45
2022/05/08 07:13:03;;;;;;;8.37;7.67;;;;;;;;;;5085215;28;24422;-45
2022/05/08 07:15:28;;;;;;;8.43;7.83;;;;;;;;;;5084592;28;24522;-45
2022/05/08 07:17:53;;;;;;;8.90;8.20;;;;;;;;;;5079979;28;24557;-45
2022/05/08 07:20:18;;;;;;;9.50;8.70;;;;;;;;;;5077345;28;24425;-45
2022/05/08 07:22:43;;;;;;;9.30;8.50;;;;;;;;;;5084102;28;24782;-45
2022/05/08 07:25:09;;;;;;;9.00;8.30;;;;;;;;;;5076220;28;24472;-45
2022/05/08 07:27:36;;;;;;;10.30;9.53;;;;;;;;;;5080575;28;24418;-46
2022/05/08 07:30:02;;;;;;;13.38;12.18;;;;;;;;;;5081383;28;24442;-45
2022/05/08 07:32:27;;;;;;;10.90;10.00;;;;;;;;;;5083069;28;24419;-45
2022/05/08 07:37:36;;;;;;;10.32;9.52;;;;;;;;;;5089301;28;24466;-45
2022/05/08 07:40:01;;;;;;;12.52;11.35;;;;;;;;;;5090405;28;24493;-46
2022/05/08 07:42:27;;;;;;;11.90;10.90;;;;;;;;;;5089935;28;24390;-46
2022/05/08 07:44:52;;;;;;;10.60;9.70;;;;;;;;;;5087978;28;24445;-45
2022/05/08 07:47:17;;;;;;;12.17;11.27;;;;;;;;;;5090283;28;24435;-45
2022/05/08 07:49:42;;;;;;;11.80;10.90;;;;;;;;;;5089745;28;24446;-46
2022/05/08 07:52:07;;;;;;;12.13;11.05;;;;;;;;;;5089712;28;24435;-46
2022/05/08 07:54:32;;;;;;;13.10;12.00;;;;;;;;;;5088557;28;24449;-46
2022/05/08 07:56:58;;;;;;;11.45;10.48;;;;;;;;;;5089633;28;24394;-45
2022/05/08 07:59:23;;;;;;;11.05;10.20;;;;;;;;;;5089743;28;24382;-46
2022/05/08 08:01:48;;;;;;;11.97;11.07;;;;;;;;;;5090002;28;24952;-46
2022/05/08 08:04:13;;;;;;;11.70;10.50;;;;;;;;;;5087837;28;24382;-46
2022/05/08 08:06:38;;;;;;;10.27;9.48;;;;;;;;;;5089465;28;24394;-45
2022/05/08 08:09:04;;;;;;;11.03;10.13;;;;;;;;;;5089616;28;24590;-45
2022/05/08 08:11:30;;;;;;;10.25;9.55;;;;;;;;;;5087421;28;24413;-46
2022/05/08 08:13:55;;;;;;;10.57;9.67;;;;;;;;;;5089384;28;24921;-46
2022/05/08 08:16:20;;;;;;;10.40;9.57;;;;;;;;;;5088370;28;24566;-45
2022/05/08 08:18:47;;;;;;;11.23;10.33;;;;;;;;;;5088218;28;24972;-45
2022/05/08 08:21:14;;;;;;;13.02;11.90;;;;;;;;;;5087696;28;25014;-46
2022/05/08 08:23:40;;;;;;;10.55;9.75;;;;;;;;;;5089014;28;24406;-45
2022/05/08 08:26:05;;;;;;;10.55;9.75;;;;;;;;;;5088578;28;24846;-47
2022/05/08 08:28:30;;;;;;;11.83;11.03;;;;;;;;;;5086771;28;25035;-46
2022/05/08 08:30:55;;;;;;;10.48;9.68;;;;;;;;;;5088556;28;24479;-46
2022/05/08 08:33:22;;;;;;;11.90;10.90;;;;;;;;;;5067632;28;24415;-46
2022/05/08 08:35:47;;;;;;;10.65;9.75;;;;;;;;;;5068576;28;24390;-46
2022/05/08 08:38:12;;;;;;;10.55;9.70;;;;;;;;;;5074754;28;24517;-46
2022/05/08 08:40:41;;;;;;;13.10;12.00;;;;;;;;;;5076964;28;24421;-46
2022/05/08 08:43:11;;;;;;;11.38;10.57;;;;;;;;;;5068557;28;24394;-46
2022/05/08 08:48:28;;;;;;;10.02;9.32;;;;;;;;;;5068145;28;24394;-46
2022/05/08 08:50:54;;;;;;;14.87;13.67;;;;;;;;;;5076357;28;24513;-46
2022/05/08 08:53:19;;;;;;;11.43;10.52;;;;;;;;;;5087492;28;24440;-46
2022/05/08 08:55:47;;;;;;;11.57;10.60;;;;;;;;;;5088337;28;24402;-46
2022/05/08 08:58:12;;;;;;;13.60;12.60;;;;;;;;;;5087323;28;24441;-46
2022/05/08 09:00:38;;;;;;;13.95;12.75;;;;;;;;;;5085703;28;24482;-46
2022/05/08 09:03:03;;;;;;;12.30;11.30;;;;;;;;;;5085765;28;24986;-47
2022/05/08 09:05:28;;;;;;;14.40;13.27;;;;;;;;;;5088662;28;24436;-46
2022/05/08 09:07:54;;;;;;;13.50;12.40;;;;;;;;;;5070697;28;24418;-46
2022/05/08 09:10:20;;;;;;;15.10;13.60;;;;;;;;;;5066759;28;24537;-46
2022/05/08 09:12:51;;;;;;;12.45;11.45;;;;;;;;;;5083388;28;24497;-46
2022/05/08 09:15:16;;;;;;;12.20;11.23;;;;;;;;;;5086490;28;24497;-46
2022/05/08 09:17:45;;;;;;;10.10;9.40;;;;;;;;;;5069885;28;24789;-46
2022/05/08 09:20:30;;;;;;;10.52;9.82;;;;;;;;;;5066179;28;24513;-46
2022/05/08 09:22:59;;;;;;;11.05;10.15;;;;;;;;;;5070155;28;24601;-45
2022/05/08 09:25:24;;;;;;;11.98;11.07;;;;;;;;;;5067307;28;24460;-45
2022/05/08 09:27:59;;;;;;;12.63;11.63;;;;;;;;;;5067870;28;24479;-46
2022/05/08 09:30:26;;;;;;;12.43;11.43;;;;;;;;;;5069249;28;24446;-46
2022/05/08 09:32:51;;;;;;;13.32;12.32;;;;;;;;;;5083414;28;24456;-46
2022/05/08 09:35:16;;;;;;;10.70;9.80;;;;;;;;;;5084657;28;24618;-45
2022/05/08 09:37:51;;;;;;;12.35;11.27;;;;;;;;;;5065662;28;24430;-46
2022/05/08 09:40:20;;;;;;;13.20;12.20;;;;;;;;;;5069953;28;25173;-46
2022/05/08 09:42:48;;;;;;;12.98;12.07;;;;;;;;;;5083492;28;24487;-46
2022/05/08 09:45:13;;;;;;;11.40;10.50;;;;;;;;;;5081515;28;24411;-45
2022/05/08 09:47:39;;;;;;;12.00;11.05;;;;;;;;;;5065540;28;24963;-46
2022/05/08 09:50:05;;;;;;;10.52;9.82;;;;;;;;;;5071039;28;24418;-46
2022/05/08 09:52:30;;;;;;;12.05;10.98;;;;;;;;;;5085422;28;24753;-46
2022/05/08 09:54:55;;;;;;;11.67;10.70;;;;;;;;;;5084223;28;24967;-46
2022/05/08 09:57:22;;;;;;;10.60;9.80;;;;;;;;;;5087940;28;24802;-46
2022/05/08 09:59:47;;;;;;;11.38;10.57;;;;;;;;;;5086302;28;24425;-46
2022/05/08 10:02:13;;;;;;;11.98;11.05;;;;;;;;;;5084162;28;24419;-46
2022/05/08 10:04:38;;;;;;;12.45;11.38;;;;;;;;;;5076315;28;24978;-46
2022/05/08 10:07:04;;;;;;;12.27;11.27;;;;;;;;;;5064996;28;24407;-46
2022/05/08 10:15:32;;;;;;;11.27;10.38;;;;;;;;;;5076162;28;24464;-46
2022/05/08 10:18:33;;;;;;;11.07;10.30;;;;;;;;;;5064844;28;24414;-47
2022/05/08 10:20:59;;;;;;;9.50;8.80;;;;;;;;;;5033404;28;24833;-46
2022/05/08 10:23:34;;;;;;;10.47;9.73;;;;;;;;;;5071994;28;24410;-47
2022/05/08 10:26:15;;;;;;;12.80;11.70;;;;;;;;;;5072432;28;24517;-46
2022/05/08 10:28:58;;;;;;;12.60;11.50;;;;;;;;;;5066059;28;24580;-46
2022/05/08 10:31:42;;;;;;;12.32;11.32;;;;;;;;;;5064734;28;24832;-46
2022/05/08 10:34:08;;;;;;;12.80;11.90;;;;;;;;;;5069222;28;24423;-45
2022/05/08 10:36:33;;;;;;;10.68;9.77;;;;;;;;;;5081441;28;24525;-45
2022/05/08 10:39:17;;;;;;;12.45;11.48;;;;;;;;;;5082376;28;24430;-45
2022/05/08 10:41:42;;;;;;;11.75;10.75;;;;;;;;;;5083828;28;24418;-46
2022/05/08 10:44:43;;;;;;;10.57;9.67;;;;;;;;;;5078942;28;25027;-45
2022/05/08 10:47:27;;;;;;;9.68;8.77;;;;;;;;;;5021284;28;25031;-45
2022/05/08 10:49:52;;;;;;;8.18;7.57;;;;;;;;;;5077021;28;24446;-46
2022/05/08 10:52:17;;;;;;;7.63;7.05;;;;;;;;;;5086224;28;24485;-46
2022/05/08 10:54:58;;;;;;;9.20;8.50;;;;;;;;;;5074704;28;24410;-46
2022/05/08 10:57:33;;;;;;;10.57;9.77;;;;;;;;;;5077737;28;24453;-45
2022/05/08 11:00:03;;;;;;;10.30;9.60;;;;;;;;;;5074027;28;24523;-45
2022/05/08 11:02:42;;;;;;;11.52;10.52;;;;;;;;;;5077528;28;24437;-46
2022/05/08 11:05:07;;;;;;;10.70;9.80;;;;;;;;;;5081392;28;24793;-46
2022/05/08 11:07:32;;;;;;;9.80;8.90;;;;;;;;;;5080536;28;24449;-45
2022/05/08 11:09:58;;;;;;;9.13;8.43;;;;;;;;;;5084536;28;24525;-46
2022/05/08 11:12:24;;;;;;;9.00;8.20;;;;;;;;;;5075890;28;24801;-46
2022/05/08 11:14:49;;;;;;;7.00;6.30;;;;;;;;;;5084752;28;24825;-46
2022/05/08 11:17:19;;;;;;;8.45;7.65;;;;;;;;;;5084466;28;24414;-47
2022/05/08 11:19:51;;;;;;;8.52;7.82;;;;;;;;;;5084007;28;24998;-45
2022/05/08 11:22:17;;;;;;;7.90;7.30;;;;;;;;;;5081414;28;24472;-46
2022/05/08 11:24:42;;;;;;;8.52;7.72;;;;;;;;;;5080308;28;24434;-46
2022/05/08 11:27:14;;;;;;;9.75;9.00;;;;;;;;;;5076770;28;24479;-46
2022/05/08 11:29:46;;;;;;;7.30;6.70;;;;;;;;;;5080676;28;24486;-46
2022/05/08 11:38:00;;;;;;;8.43;7.70;;;;;;;;;;5079426;28;24564;-46
2022/05/08 11:40:26;;;;;;;8.20;7.50;;;;;;;;;;5069722;28;24426;-45
2022/05/08 11:42:51;;;;;;;8.82;8.13;;;;;;;;;;5077821;28;24983;-46
2022/05/08 11:45:17;;;;;;;8.18;7.38;;;;;;;;;;5083044;28;24422;-45
2022/05/08 11:47:48;;;;;;;8.80;8.10;;;;;;;;;;5077965;28;24773;-46
2022/05/08 11:50:13;;;;;;;8.60;7.90;;;;;;;;;;5078464;28;24413;-45
2022/05/08 11:52:39;;;;;;;8.10;7.47;;;;;;;;;;5081841;28;24418;-45
2022/05/08 11:55:04;;;;;;;8.83;8.13;;;;;;;;;;5080950;28;24430;-45
2022/05/08 11:57:39;;;;;;;8.80;8.00;;;;;;;;;;5083745;28;24456;-46
2022/05/08 12:00:05;;;;;;;8.20;7.60;;;;;;;;;;5079663;28;24414;-46
2022/05/08 12:02:41;;;;;;;9.10;8.30;;;;;;;;;;5075851;28;24426;-46
2022/05/08 12:05:07;;;;;;;8.68;7.93;;;;;;;;;;5081891;28;24986;-46
2022/05/08 12:07:38;;;;;;;8.23;7.53;;;;;;;;;;5080139;28;24438;-47
2022/05/08 12:10:04;;;;;;;8.75;7.95;;;;;;;;;;5080306;28;24437;-46
2022/05/08 12:12:33;;;;;;;9.30;8.40;;;;;;;;;;5083231;28;24422;-47
2022/05/08 12:15:00;;;;;;;7.70;7.10;;;;;;;;;;5079306;28;24418;-46
2022/05/08 12:17:26;;;;;;;7.40;6.80;;;;;;;;;;5084572;28;24407;-46
2022/05/08 12:19:51;;;;;;;7.13;6.53;;;;;;;;;;5086171;28;24443;-46
2022/05/08 12:22:17;;;;;;;7.60;7.00;;;;;;;;;;5085212;28;24561;-46
2022/05/08 12:24:43;;;;;;;7.70;7.10;;;;;;;;;;5083242;28;24826;-46
2022/05/08 12:27:08;;;;;;;6.30;5.80;;;;;;;;;;5087193;28;25104;-46
2022/05/08 12:29:33;;;;;;;7.90;7.20;;;;;;;;;;5079393;28;24446;-47
2022/05/08 12:31:58;;;;;;;8.13;7.32;;;;;;;;;;5087239;28;24455;-46
2022/05/08 12:34:23;;;;;;;8.93;8.07;;;;;;;;;;5080230;28;24515;-46
2022/05/08 12:36:49;;;;;;;7.90;7.20;;;;;;;;;;5086724;28;24422;-46
2022/05/08 12:39:14;;;;;;;7.30;6.60;;;;;;;;;;5087922;28;24966;-46
2022/05/08 12:41:40;;;;;;;7.00;6.40;;;;;;;;;;5074718;28;24419;-46
2022/05/08 12:44:05;;;;;;;7.43;6.83;;;;;;;;;;5068407;28;24893;-46
2022/05/08 12:46:30;;;;;;;7.50;6.80;;;;;;;;;;5082098;28;25532;-46
2022/05/08 12:49:02;;;;;;;8.80;8.10;;;;;;;;;;5072772;28;24433;-46
2022/05/08 12:51:29;;;;;;;7.50;6.90;;;;;;;;;;5082372;28;24650;-46
2022/05/08 12:53:55;;;;;;;7.17;6.60;;;;;;;;;;5082056;28;25246;-46
2022/05/08 12:56:20;;;;;;;8.00;7.30;;;;;;;;;;5081831;28;24559;-46
2022/05/08 13:01:29;;;;;;;8.88;8.18;;;;;;;;;;5070768;28;24441;-44
2022/05/08 13:03:54;;;;;;;7.50;6.90;;;;;;;;;;5079148;28;24455;-46
2022/05/08 13:06:19;;;;;;;8.25;7.45;;;;;;;;;;5083086;28;24978;-46
2022/05/08 13:08:45;;;;;;;7.40;6.90;;;;;;;;;;5082209;28;24467;-46
2022/05/08 13:11:10;;;;;;;7.10;6.40;;;;;;;;;;5081426;28;25294;-46
2022/05/08 13:13:37;;;;;;;6.80;5.90;;;;;;;;;;5081315;28;24406;-46
2022/05/08 13:16:02;;;;;;;7.28;6.78;;;;;;;;;;5083027;28;24430;-45
2022/05/08 13:18:27;;;;;;;6.90;6.30;;;;;;;;;;5077300;28;24562;-44
2022/05/08 13:20:52;;;;;;;6.90;6.20;;;;;;;;;;5079195;28;24437;-44
2022/05/08 13:23:18;;;;;;;5.90;5.50;;;;;;;;;;5079922;28;24430;-44
2022/05/08 13:25:43;;;;;;;6.07;5.68;;;;;;;;;;5080053;28;24505;-44
2022/05/08 13:28:08;;;;;;;6.10;5.60;;;;;;;;;;5076987;28;24445;-44
2022/05/08 13:30:33;;;;;;;5.28;4.85;;;;;;;;;;5074981;28;24571;-43
2022/05/08 13:32:58;;;;;;;6.20;5.80;;;;;;;;;;5082647;28;24506;-44
2022/05/08 13:35:24;;;;;;;6.27;5.37;;;;;;;;;;5079935;28;24479;-45
2022/05/08 13:37:49;;;;;;;5.97;5.47;;;;;;;;;;5080298;28;24523;-44
2022/05/08 13:40:14;;;;;;;5.95;5.45;;;;;;;;;;5081274;28;24482;-44
2022/05/08 13:42:39;;;;;;;6.57;5.97;;;;;;;;;;5070615;28;24459;-44
2022/05/08 13:45:04;;;;;;;5.90;5.40;;;;;;;;;;5080337;28;24487;-45
2022/05/08 13:47:29;;;;;;;7.17;5.40;;;;;;;;;;5080122;28;25271;-44
2022/05/08 13:49:55;;;;;;;6.60;6.00;;;;;;;;;;5081778;28;24797;-44
2022/05/08 13:52:22;;;;;;;5.20;4.70;;;;;;;;;;5080347;28;24837;-44
2022/05/08 13:54:47;;;;;;;5.50;4.90;;;;;;;;;;5070877;28;25028;-45
2022/05/08 13:57:13;;;;;;;5.30;4.80;;;;;;;;;;5075512;28;24418;-45
2022/05/08 13:59:38;;;;;;;5.00;4.60;;;;;;;;;;5079325;28;24493;-44
2022/05/08 14:02:03;;;;;;;4.82;4.43;;;;;;;;;;5071257;28;24604;-44
2022/05/08 14:04:28;;;;;;;4.40;4.07;;;;;;;;;;5061801;28;25062;-45
2022/05/08 14:06:53;;;;;;;5.53;4.97;;;;;;;;;;5081719;28;24514;-44
2022/05/08 14:09:19;;;;;;;4.87;4.47;;;;;;;;;;5079538;28;24866;-45
2022/05/08 14:11:44;;;;;;;5.10;4.70;;;;;;;;;;5079745;28;24862;-45
2022/05/08 14:14:09;;;;;;;4.95;4.55;;;;;;;;;;5081160;28;24971;-44
2022/05/08 14:16:34;;;;;;;5.50;5.10;;;;;;;;;;5076095;28;24443;-45
2022/05/08 14:18:59;;;;;;;5.10;4.60;;;;;;;;;;5064927;28;24411;-43
2022/05/08 14:21:24;;;;;;;4.80;4.40;;;;;;;;;;5075378;28;24987;-45
2022/05/08 14:23:49;;;;;;;4.80;4.40;;;;;;;;;;5076417;28;24430;-44
2022/05/08 14:26:14;;;;;;;5.03;4.53;;;;;;;;;;5082145;28;24426;-44
2022/05/08 14:28:40;;;;;;;4.20;3.88;;;;;;;;;;5073852;28;24721;-44
2022/05/08 14:36:33;;;;;;;5.25;4.85;;;;;;;;;;5081433;28;24545;-46
2022/05/08 14:38:58;;;;;;;5.13;4.63;;;;;;;;;;5075864;28;24414;-44
2022/05/08 14:41:23;;;;;;;4.70;4.30;;;;;;;;;;5078313;28;25459;-44
2022/05/08 14:43:49;;;;;;;4.70;4.30;;;;;;;;;;5077893;28;24422;-44
2022/05/08 14:46:14;;;;;;;4.57;4.27;;;;;;;;;;5081924;28;24422;-44
2022/05/08 14:48:39;;;;;;;4.47;4.17;;;;;;;;;;5081088;28;24479;-45
2022/05/08 14:51:05;;;;;;;4.80;4.40;;;;;;;;;;5080353;28;24684;-45
2022/05/08 14:53:30;;;;;;;5.30;4.80;;;;;;;;;;5078616;28;24994;-44
2022/05/08 14:55:55;;;;;;;5.77;5.27;;;;;;;;;;5075032;28;24420;-44
2022/05/08 14:58:23;;;;;;;6.22;5.63;;;;;;;;;;5077866;28;24995;-44
2022/05/08 15:00:48;;;;;;;6.20;5.60;;;;;;;;;;5083361;28;24591;-44